Time;durP1;ratioP1;P1;durP2;ratioP2;P2;SDS_P1;SDS_P2;PMS_P1;PMS_P2;Temp;Humidity;BMP_temperature;BMP_pressure;BME280_temperature;BME280_humidity;BME280_pressure;Samples;Min_cycle;Max_cycle;Signal;HPM_P1;HPM_P2
2021/12/03 00:00:44;;;;;;;26.53;23.73;;;;;;;-141.02;96.79;85564.88;5133293;28;20198;-75
2021/12/03 00:03:13;;;;;;;25.10;23.90;;;;;;;-141.02;98.26;85218.84;5133355;27;20227;-75
2021/12/03 00:05:40;;;;;;;24.43;23.23;;;;;;;-141.02;99.40;85574.59;5133248;28;20278;-75
2021/12/03 00:08:09;;;;;;;23.83;22.73;;;;;;;-141.02;100.00;85553.19;5132848;28;20197;-76
2021/12/03 00:10:37;;;;;;;25.10;23.90;;;;;;;-141.02;100.00;85541.53;5132927;28;20192;-75
2021/12/03 00:13:06;;;;;;;24.60;23.40;;;;;;;-141.02;100.00;85535.72;5133954;28;20207;-76
2021/12/03 00:15:35;;;;;;;24.20;23.00;;;;;;;-141.02;100.00;85588.19;5133103;27;20201;-76
2021/12/03 00:18:02;;;;;;;21.70;20.60;;;;;;;-141.02;100.00;85211.09;5132801;28;20284;-77
2021/12/03 00:20:34;;;;;;;21.47;20.47;;;;;;;-141.02;99.54;85516.28;5133060;28;20253;-76
2021/12/03 00:23:03;;;;;;;20.70;19.60;;;;;;;-141.02;97.90;85553.19;5132822;28;20184;-75
2021/12/03 00:25:31;;;;;;;21.53;20.30;;;;;;;-141.02;96.56;85527.94;5132770;28;20235;-76
2021/12/03 00:27:58;;;;;;;26.30;25.00;;;;;;;-141.02;96.52;85570.69;5133141;27;20253;-75
2021/12/03 00:30:25;;;;;;;26.30;24.87;;;;;;;-141.02;96.73;85557.09;5133000;28;20250;-76
2021/12/03 00:32:52;;;;;;;25.10;23.80;;;;;;;-141.02;97.79;85537.66;5133051;28;20235;-76
2021/12/03 00:35:20;;;;;;;23.80;22.70;;;;;;;-141.02;97.76;85588.19;5132639;28;20249;-75
2021/12/03 00:37:50;;;;;;;23.90;22.70;;;;;;;-141.02;98.87;85553.19;5132675;27;20281;-75
2021/12/03 00:40:20;;;;;;;24.93;23.63;;;;;;;-141.02;100.00;85597.91;5132974;27;20658;-77
2021/12/03 00:42:47;;;;;;;26.77;25.47;;;;;;;-141.02;100.00;85634.84;5132691;27;20181;-76
2021/12/03 00:45:16;;;;;;;24.77;23.43;;;;;;;-141.02;100.00;85605.69;5132619;27;20189;-75
2021/12/03 00:47:44;;;;;;;24.00;22.80;;;;;;;-141.02;100.00;85634.84;5132828;28;20200;-76
2021/12/03 00:50:17;;;;;;;24.00;22.70;;;;;;;-141.02;100.00;85527.94;5132674;27;20232;-76
2021/12/03 00:52:44;;;;;;;23.20;22.10;;;;;;;-141.02;100.00;85553.19;5132605;27;20607;-76
2021/12/03 00:55:13;;;;;;;21.90;20.80;;;;;;;-141.02;100.00;85609.56;5134832;27;20644;-76
2021/12/03 00:57:41;;;;;;;21.30;20.20;;;;;;;-141.02;100.00;85551.25;5136544;27;20311;-76
2021/12/03 01:00:14;;;;;;;25.40;23.90;;;;;;;-141.02;100.00;85562.91;5136223;27;20281;-76
2021/12/03 01:02:41;;;;;;;21.97;20.97;;;;;;;-141.02;100.00;85623.19;5136264;27;20271;-75
2021/12/03 01:05:09;;;;;;;23.60;22.50;;;;;;;-141.02;100.00;85520.16;5136277;27;20235;-76
2021/12/03 01:07:36;;;;;;;22.50;21.40;;;;;;;-141.02;100.00;85560.97;5136100;27;20231;-76
2021/12/03 01:10:05;;;;;;;21.60;20.60;;;;;;;-141.02;100.00;85599.84;5136374;27;20229;-77
2021/12/03 01:12:34;;;;;;;22.80;21.77;;;;;;;-141.02;100.00;85595.97;5136338;27;20227;-75
2021/12/03 01:15:01;;;;;;;23.30;22.20;;;;;;;-141.02;100.00;85494.88;5135919;27;20619;-77
2021/12/03 01:17:28;;;;;;;20.97;19.97;;;;;;;-141.02;100.00;85607.63;5135918;27;20220;-76
2021/12/03 01:19:55;;;;;;;21.17;20.17;;;;;;;-141.02;100.00;85514.31;5135944;27;20670;-76
2021/12/03 01:22:22;;;;;;;20.67;19.67;;;;;;;-141.02;100.00;85590.13;5136229;27;20245;-77
2021/12/03 01:24:49;;;;;;;20.00;19.00;;;;;;;-141.02;100.00;85588.19;5136186;27;20192;-76
2021/12/03 01:27:16;;;;;;;21.13;20.13;;;;;;;-141.02;100.00;85572.66;5135787;27;20734;-77
2021/12/03 01:29:45;;;;;;;22.40;21.40;;;;;;;-141.02;100.00;85576.53;5136087;27;20280;-76
2021/12/03 01:32:12;;;;;;;21.50;20.50;;;;;;;-141.02;100.00;85603.75;5135956;27;20199;-75
2021/12/03 01:34:39;;;;;;;22.73;21.73;;;;;;;-141.02;100.00;85588.19;5135657;27;20616;-76
2021/12/03 01:37:06;;;;;;;24.10;22.90;;;;;;;-141.02;100.00;85428.78;5135489;27;20705;-76
2021/12/03 01:39:33;;;;;;;23.37;21.93;;;;;;;-141.02;100.00;85508.50;5135775;27;20276;-75
2021/12/03 01:42:01;;;;;;;20.73;19.73;;;;;;;-141.02;100.00;85623.19;5135797;27;20268;-74
2021/12/03 01:44:28;;;;;;;22.20;21.10;;;;;;;-141.02;100.00;85595.97;5135534;27;20674;-76
2021/12/03 01:46:56;;;;;;;20.50;19.50;;;;;;;-141.02;100.00;85595.97;5135404;27;20243;-76
2021/12/03 01:49:24;;;;;;;21.33;20.33;;;;;;;-141.02;100.00;85607.63;5135446;27;20297;-75
2021/12/03 01:51:52;;;;;;;20.70;19.60;;;;;;;-141.02;100.00;85640.69;5135266;27;20678;-76
2021/12/03 01:54:19;;;;;;;19.60;18.60;;;;;;;-141.02;100.00;85627.06;5135542;27;20200;-76
2021/12/03 01:56:46;;;;;;;21.03;20.03;;;;;;;-141.02;100.00;85652.34;5135466;27;20235;-76
2021/12/03 01:59:13;;;;;;;21.00;20.00;;;;;;;-141.02;100.00;85584.31;5135190;27;20279;-75
2021/12/03 02:01:41;;;;;;;22.30;21.23;;;;;;;-141.02;100.00;85572.66;5135408;27;20678;-76
2021/12/03 02:04:09;;;;;;;21.87;20.80;;;;;;;-141.02;100.00;85625.13;5135365;27;20233;-76
2021/12/03 02:06:38;;;;;;;20.37;19.40;;;;;;;-141.02;100.00;85619.28;5134396;27;20701;-76
2021/12/03 02:09:06;;;;;;;21.10;20.10;;;;;;;-141.02;100.00;85595.97;5134883;27;20312;-76
2021/12/03 02:11:34;;;;;;;21.73;20.67;;;;;;;-141.02;100.00;85595.97;5135306;27;20231;-77
2021/12/03 02:14:01;;;;;;;20.33;19.10;;;;;;;-141.02;100.00;85553.19;5134822;27;20284;-75
2021/12/03 02:16:28;;;;;;;20.80;19.70;;;;;;;-141.02;100.00;85603.75;5134757;27;20315;-77
2021/12/03 02:18:56;;;;;;;20.30;19.30;;;;;;;-141.02;100.00;85640.69;5135060;27;20256;-77
2021/12/03 02:21:24;;;;;;;20.03;19.13;;;;;;;-141.02;100.00;85609.56;5135090;27;20196;-79
2021/12/03 02:23:52;;;;;;;20.47;19.43;;;;;;;-141.02;100.00;85638.75;5134704;27;20275;-76
2021/12/03 02:26:20;;;;;;;19.87;18.97;;;;;;;-141.02;100.00;85640.69;5134577;27;20192;-76
2021/12/03 02:28:49;;;;;;;19.47;18.47;;;;;;;-141.02;100.00;85654.28;5134904;27;20245;-76
2021/12/03 02:31:20;;;;;;;19.37;18.47;;;;;;;-141.02;100.00;85627.06;5134484;27;20735;-76
2021/12/03 02:33:51;;;;;;;19.37;18.47;;;;;;;-141.02;100.00;85611.53;5134505;27;20232;-75
2021/12/03 02:36:19;;;;;;;20.23;19.13;;;;;;;-141.02;100.00;85634.84;5134379;27;20190;-75
2021/12/03 02:38:48;;;;;;;20.80;19.77;;;;;;;-141.02;100.00;85646.50;5134760;27;20219;-75
2021/12/03 02:41:16;;;;;;;19.70;18.60;;;;;;;-141.02;100.00;85576.53;5134665;27;20192;-78
2021/12/03 02:43:43;;;;;;;19.20;18.30;;;;;;;-141.02;100.00;85627.06;5133404;27;20265;-78
2021/12/03 02:46:10;;;;;;;20.17;19.27;;;;;;;-141.02;100.00;85685.41;5134541;27;20250;-77
2021/12/03 02:48:38;;;;;;;22.30;21.07;;;;;;;-141.02;100.00;85615.41;5134454;27;20615;-76
2021/12/03 02:51:07;;;;;;;21.60;20.60;;;;;;;-141.02;100.00;86704.22;5133963;27;20598;-76
2021/12/03 02:53:35;;;;;;;21.23;20.17;;;;;;;-141.02;100.00;85584.31;5134017;27;20235;-77
2021/12/03 02:56:04;;;;;;;20.33;19.33;;;;;;;-141.02;100.00;85454.06;5134024;27;20621;-77
2021/12/03 02:58:32;;;;;;;21.30;20.30;;;;;;;-141.02;100.00;85619.28;5133876;27;20224;-79
2021/12/03 03:00:59;;;;;;;20.23;19.27;;;;;;;-141.02;100.00;85634.84;5134173;27;20188;-76
2021/12/03 03:03:27;;;;;;;21.03;20.10;;;;;;;-141.02;100.00;85630.97;5134157;27;20238;-74
2021/12/03 03:05:55;;;;;;;21.87;20.87;;;;;;;-141.02;100.00;85646.50;5134121;27;20223;-77
2021/12/03 03:08:23;;;;;;;21.77;20.77;;;;;;;-141.02;100.00;85642.63;5134123;27;20200;-79
2021/12/03 03:10:50;;;;;;;23.00;21.90;;;;;;;-141.02;100.00;85621.25;5134043;27;20227;-78
2021/12/03 03:13:19;;;;;;;20.23;19.33;;;;;;;-141.02;100.00;85648.47;5133951;27;20201;-77
2021/12/03 03:15:47;;;;;;;19.97;19.07;;;;;;;-141.02;100.00;85615.41;5133692;27;20227;-78
2021/12/03 03:18:18;;;;;;;20.00;19.10;;;;;;;-141.02;100.00;85595.97;5132695;27;20327;-77
2021/12/03 03:20:46;;;;;;;21.20;20.20;;;;;;;-141.02;100.00;85629.03;5133972;27;20192;-78
2021/12/03 03:23:15;;;;;;;21.40;20.30;;;;;;;-141.02;100.00;85625.13;5133742;27;20264;-77
2021/12/03 03:25:43;;;;;;;22.53;21.43;;;;;;;-141.02;100.00;85646.50;5133841;27;20196;-78
2021/12/03 03:28:11;;;;;;;20.17;19.17;;;;;;;-141.02;100.00;85510.44;5133745;27;20673;-77
2021/12/03 03:30:41;;;;;;;21.17;19.83;;;;;;;-141.02;100.00;85640.69;5133854;27;20188;-73
2021/12/03 03:33:09;;;;;;;22.67;21.50;;;;;;;-141.02;100.00;85667.91;5133767;27;20231;-77
2021/12/03 03:35:37;;;;;;;21.60;20.50;;;;;;;-141.02;100.00;85658.19;5133674;27;20292;-74
2021/12/03 03:38:05;;;;;;;21.57;20.57;;;;;;;-141.02;100.00;85576.53;5133209;27;20224;-78
2021/12/03 03:40:32;;;;;;;21.93;20.93;;;;;;;-141.02;100.00;85648.47;5133522;27;20223;-77
2021/12/03 03:43:00;;;;;;;22.93;21.93;;;;;;;-141.02;100.00;85627.06;5133491;27;20192;-77
2021/12/03 03:45:28;;;;;;;22.33;21.23;;;;;;;-141.02;100.00;85607.63;5133499;27;20548;-76
2021/12/03 03:47:57;;;;;;;22.37;21.20;;;;;;;-141.02;100.00;85592.09;5133519;27;20204;-77
2021/12/03 03:50:25;;;;;;;19.90;19.00;;;;;;;-141.02;100.00;85331.59;5132996;27;20316;-76
2021/12/03 03:52:53;;;;;;;20.53;19.63;;;;;;;-141.02;100.00;85654.28;5133106;27;20232;-77
2021/12/03 03:55:21;;;;;;;21.13;20.13;;;;;;;-141.02;100.00;85611.53;5133400;27;20224;-76
2021/12/03 03:57:49;;;;;;;21.87;20.80;;;;;;;-141.02;100.00;85665.97;5132907;27;20270;-77
2021/12/03 04:00:18;;;;;;;19.70;18.80;;;;;;;-141.02;100.00;85611.53;5133003;27;20279;-75
2021/12/03 04:02:46;;;;;;;18.57;17.77;;;;;;;-141.02;100.00;85662.06;5132944;28;20749;-76
2021/12/03 04:05:15;;;;;;;18.00;17.20;;;;;;;-141.02;100.00;85601.81;5132932;28;20548;-77
2021/12/03 04:07:43;;;;;;;19.90;18.90;;;;;;;-141.02;100.00;85619.28;5133201;28;20222;-77
2021/12/03 04:10:12;;;;;;;21.90;20.53;;;;;;;-141.02;100.00;85669.84;5133256;27;20220;-77
2021/12/03 04:12:39;;;;;;;19.70;18.80;;;;;;;-141.02;100.00;85195.53;5133210;28;20279;-77
2021/12/03 04:15:08;;;;;;;19.47;18.50;;;;;;;-141.02;100.00;85679.56;5132840;28;20288;-77
2021/12/03 04:17:35;;;;;;;19.40;18.33;;;;;;;-141.02;100.00;85611.53;5133096;27;20228;-77
2021/12/03 04:20:02;;;;;;;21.30;19.57;;;;;;;-141.02;100.00;85642.63;5132779;27;20199;-76
2021/12/03 04:22:32;;;;;;;18.60;17.80;;;;;;;-141.02;100.00;85623.19;5132779;28;20674;-77
2021/12/03 04:24:59;;;;;;;19.27;18.27;;;;;;;-141.02;100.00;85646.50;5133454;27;20268;-77
2021/12/03 04:27:27;;;;;;;20.33;19.43;;;;;;;-141.02;100.00;85630.97;5133085;28;20192;-76
2021/12/03 04:29:54;;;;;;;19.10;18.20;;;;;;;-141.02;100.00;85638.75;5134643;27;20250;-77
2021/12/03 04:32:24;;;;;;;19.40;18.50;;;;;;;-141.02;100.00;85634.84;5136802;27;20658;-76
2021/12/03 04:34:52;;;;;;;19.53;18.63;;;;;;;-141.02;100.00;85640.69;5136835;27;20185;-79
2021/12/03 04:37:19;;;;;;;18.40;17.60;;;;;;;-141.02;100.00;85595.97;5136956;27;20293;-78
2021/12/03 04:39:47;;;;;;;19.20;18.30;;;;;;;-141.02;100.00;85599.84;5137038;27;20247;-77
2021/12/03 04:42:15;;;;;;;19.70;18.80;;;;;;;-141.02;100.00;85650.41;5136676;27;20200;-77
2021/12/03 04:44:42;;;;;;;18.50;17.70;;;;;;;-141.02;100.00;85599.84;5136637;27;20192;-77
2021/12/03 04:47:09;;;;;;;18.60;17.80;;;;;;;-141.02;100.00;85669.84;5136501;27;20668;-77
2021/12/03 04:49:36;;;;;;;18.93;18.13;;;;;;;-141.02;100.00;85636.78;5136565;27;20228;-77
2021/12/03 04:52:04;;;;;;;19.47;18.40;;;;;;;-141.02;100.00;85650.41;5136505;27;20253;-75
2021/12/03 04:54:31;;;;;;;18.50;17.70;;;;;;;-141.02;100.00;85650.41;5136676;27;20235;-77
2021/12/03 04:57:00;;;;;;;21.00;19.97;;;;;;;-141.02;100.00;85621.25;5136596;27;20231;-77
2021/12/03 04:59:27;;;;;;;20.77;19.87;;;;;;;-141.02;100.00;85638.75;5136328;27;20228;-77
2021/12/03 05:01:57;;;;;;;21.77;20.77;;;;;;;-141.02;100.00;85629.03;5136609;27;20228;-78
2021/12/03 05:04:24;;;;;;;20.30;19.30;;;;;;;-141.02;100.00;85691.22;5136284;27;20192;-77
2021/12/03 05:06:56;;;;;;;23.70;22.60;;;;;;;-141.02;100.00;85646.50;5136222;27;20197;-76
2021/12/03 05:09:23;;;;;;;20.70;19.63;;;;;;;-141.02;100.00;85634.84;5137154;27;20280;-75
2021/12/03 05:11:51;;;;;;;26.70;24.67;;;;;;;-141.02;100.00;85669.84;5136103;27;20246;-77
2021/12/03 05:14:19;;;;;;;19.77;18.87;;;;;;;-141.02;100.00;85662.06;5136373;27;20283;-77
2021/12/03 05:16:48;;;;;;;20.40;19.50;;;;;;;-141.02;100.00;85627.06;5136011;27;20670;-75
2021/12/03 05:19:16;;;;;;;21.37;20.37;;;;;;;-141.02;100.00;85675.66;5136310;27;20224;-76
2021/12/03 05:21:43;;;;;;;21.13;20.13;;;;;;;-141.02;100.00;85654.28;5135954;27;20196;-76
2021/12/03 05:24:10;;;;;;;21.73;20.63;;;;;;;-141.02;100.00;85615.41;5135812;27;20650;-77
2021/12/03 05:26:39;;;;;;;21.63;20.30;;;;;;;-141.02;100.00;85638.75;5136167;27;20204;-76
2021/12/03 05:29:07;;;;;;;22.97;21.73;;;;;;;-141.02;100.00;85665.97;5136034;27;20198;-74
2021/12/03 05:31:37;;;;;;;22.33;20.73;;;;;;;-141.02;100.00;85533.75;5136015;27;20275;-76
2021/12/03 05:34:05;;;;;;;20.60;19.60;;;;;;;-141.02;100.00;85580.41;5136016;27;20200;-82
2021/12/03 05:36:32;;;;;;;19.60;18.70;;;;;;;-141.02;100.00;85646.50;5135860;27;20199;-77
2021/12/03 05:38:59;;;;;;;22.03;20.93;;;;;;;-141.02;100.00;85590.13;5135537;27;20314;-75
2021/12/03 05:41:26;;;;;;;21.03;20.03;;;;;;;-141.02;100.00;85615.41;5134522;27;20286;-74
2021/12/03 05:43:53;;;;;;;20.17;18.97;;;;;;;-141.02;100.00;85599.84;5135600;27;20196;-78
2021/12/03 05:46:20;;;;;;;21.07;20.07;;;;;;;-141.02;100.00;85594.03;5135849;27;20192;-76
2021/12/03 05:48:49;;;;;;;20.70;19.70;;;;;;;-141.02;100.00;85607.63;5135706;27;20200;-76
2021/12/03 05:51:16;;;;;;;20.70;19.70;;;;;;;-141.02;100.00;85568.75;5135311;27;20276;-76
2021/12/03 05:53:43;;;;;;;20.73;19.73;;;;;;;-141.02;100.00;85560.97;5135296;27;20189;-76
2021/12/03 05:56:10;;;;;;;21.13;20.03;;;;;;;-141.02;100.00;85525.97;5136462;27;20196;-74
2021/12/03 05:58:37;;;;;;;20.20;19.20;;;;;;;-141.02;100.00;85498.78;5135498;27;20220;-75
2021/12/03 06:01:05;;;;;;;19.90;18.90;;;;;;;-141.02;100.00;85525.97;5135243;27;20226;-75
2021/12/03 06:03:32;;;;;;;20.97;19.87;;;;;;;-141.02;100.00;85522.09;5135448;27;20196;-75
2021/12/03 06:06:00;;;;;;;19.30;18.30;;;;;;;-141.02;100.00;85448.22;5135041;27;20250;-75
2021/12/03 06:08:27;;;;;;;21.00;19.93;;;;;;;-141.02;100.00;85516.28;5135001;27;20674;-75
2021/12/03 06:10:54;;;;;;;21.30;20.30;;;;;;;-141.02;100.00;85502.66;5135202;27;20231;-74
2021/12/03 06:13:21;;;;;;;19.17;18.27;;;;;;;-141.02;100.00;85514.31;5135233;27;20189;-74
2021/12/03 06:15:49;;;;;;;19.10;18.20;;;;;;;-141.02;100.00;85483.22;5134840;27;20292;-74
2021/12/03 06:18:16;;;;;;;21.17;20.27;;;;;;;-141.02;100.00;85537.66;5134757;27;20277;-77
2021/12/03 06:20:43;;;;;;;21.03;20.03;;;;;;;-141.02;100.00;85491.00;5135086;27;20224;-76
2021/12/03 06:23:11;;;;;;;21.03;20.03;;;;;;;-141.02;100.00;85525.97;5134954;27;20666;-74
2021/12/03 06:25:39;;;;;;;22.00;20.87;;;;;;;-141.02;100.00;85483.22;5134978;27;20192;-74
2021/12/03 06:28:07;;;;;;;20.23;19.23;;;;;;;-141.02;100.00;85498.78;5134919;27;20208;-76
2021/12/03 06:30:34;;;;;;;21.53;20.43;;;;;;;-141.02;100.00;85500.72;5134826;27;20193;-77
2021/12/03 06:33:02;;;;;;;20.97;19.97;;;;;;;-141.02;100.00;85494.88;5134480;27;20228;-76
2021/12/03 06:35:29;;;;;;;20.50;19.50;;;;;;;-141.02;100.00;85518.22;5134771;27;20193;-74
2021/12/03 06:37:56;;;;;;;20.10;19.20;;;;;;;-141.02;100.00;85491.00;5134702;27;20251;-75
2021/12/03 06:40:27;;;;;;;20.20;19.30;;;;;;;-141.02;100.00;85489.06;5134379;27;20625;-76
2021/12/03 06:42:55;;;;;;;21.43;20.23;;;;;;;-141.02;100.00;85463.78;5134558;27;20185;-73
2021/12/03 06:45:23;;;;;;;20.63;19.17;;;;;;;-141.02;100.00;85467.66;5134288;27;20654;-76
2021/12/03 06:47:50;;;;;;;20.03;19.03;;;;;;;-141.02;100.00;85166.38;5134611;27;20196;-76
2021/12/03 06:50:18;;;;;;;22.10;20.90;;;;;;;-141.02;100.00;85448.22;5134304;27;20281;-80
2021/12/03 06:52:49;;;;;;;22.63;21.50;;;;;;;-141.02;100.00;85471.56;5134045;27;20241;-74
2021/12/03 06:55:16;;;;;;;22.40;21.30;;;;;;;-141.02;100.00;85471.56;5134194;27;20188;-76
2021/12/03 06:57:45;;;;;;;23.30;21.80;;;;;;;-141.02;100.00;85508.50;5134328;27;20224;-76
2021/12/03 07:00:14;;;;;;;20.70;19.70;;;;;;;-141.02;100.00;85459.91;5134338;27;20227;-74
2021/12/03 07:02:41;;;;;;;20.87;19.77;;;;;;;-141.02;100.00;85467.66;5134335;27;20189;-75
2021/12/03 07:05:09;;;;;;;22.27;21.17;;;;;;;-141.02;100.00;85265.50;5134038;27;20215;-75
2021/12/03 07:07:37;;;;;;;22.47;21.37;;;;;;;-141.02;100.00;85477.38;5133977;27;20740;-75
2021/12/03 07:10:05;;;;;;;21.37;20.37;;;;;;;-141.02;100.00;85475.44;5133818;27;20287;-75
2021/12/03 07:12:32;;;;;;;24.50;22.60;;;;;;;-141.02;100.00;85428.78;5133805;27;20193;-74
2021/12/03 07:15:01;;;;;;;21.80;20.70;;;;;;;-141.02;100.00;85430.72;5134145;27;20244;-75
2021/12/03 07:17:30;;;;;;;22.20;21.10;;;;;;;-141.02;100.00;85436.56;5133734;27;20192;-77
2021/12/03 07:19:58;;;;;;;23.43;22.27;;;;;;;-141.02;100.00;85479.34;5133636;27;20273;-76
2021/12/03 07:22:26;;;;;;;21.07;20.07;;;;;;;-141.02;100.00;85452.13;5134020;27;20192;-76
2021/12/03 07:24:53;;;;;;;22.30;21.30;;;;;;;-141.02;100.00;85479.34;5133944;27;20241;-76
2021/12/03 07:27:20;;;;;;;23.30;22.00;;;;;;;-141.02;100.00;85494.88;5133495;27;20204;-77
2021/12/03 07:29:48;;;;;;;21.20;19.87;;;;;;;-141.02;100.00;85461.84;5134338;27;20200;-75
2021/12/03 07:32:18;;;;;;;20.07;19.07;;;;;;;-141.02;100.00;85457.94;5133506;27;20203;-76
2021/12/03 07:34:45;;;;;;;21.50;20.50;;;;;;;-141.02;100.00;85463.78;5133769;27;20188;-74
2021/12/03 07:37:13;;;;;;;23.00;21.77;;;;;;;-141.02;100.00;85479.34;5133662;27;20188;-76
2021/12/03 07:39:41;;;;;;;22.57;21.53;;;;;;;-141.02;100.00;85456.00;5133551;27;20261;-76
2021/12/03 07:42:08;;;;;;;23.40;22.30;;;;;;;-141.02;100.00;85467.66;5133729;27;20203;-76
2021/12/03 07:44:35;;;;;;;23.03;21.83;;;;;;;-141.02;100.00;85226.63;5133598;27;20245;-77
2021/12/03 07:47:03;;;;;;;18.57;17.67;;;;;;;-141.02;100.00;85473.50;5133271;27;20200;-76
2021/12/03 07:49:32;;;;;;;22.27;21.10;;;;;;;-141.02;100.00;85491.00;5133290;27;20231;-78
2021/12/03 07:51:59;;;;;;;23.77;22.47;;;;;;;-141.02;100.00;85053.63;5133636;27;20226;-75
2021/12/03 07:54:26;;;;;;;22.10;20.90;;;;;;;-141.02;100.00;85421.00;5133493;27;20200;-75
2021/12/03 07:56:54;;;;;;;21.50;20.40;;;;;;;-141.02;100.00;85401.56;5133488;27;20192;-76
2021/12/03 07:59:21;;;;;;;24.67;23.37;;;;;;;-141.02;100.00;85473.50;5133106;27;20697;-75
2021/12/03 08:01:48;;;;;;;21.40;20.30;;;;;;;-141.02;100.00;85331.59;5134154;27;20249;-74
2021/12/03 08:04:16;;;;;;;21.43;20.10;;;;;;;-141.02;100.00;85467.66;5132890;27;20250;-78
2021/12/03 08:06:47;;;;;;;22.10;20.90;;;;;;;-141.02;100.00;85463.78;5133253;27;20189;-76
2021/12/03 08:09:14;;;;;;;22.87;21.37;;;;;;;-141.02;100.00;85456.00;5133029;28;20185;-77
2021/12/03 08:11:41;;;;;;;25.03;23.63;;;;;;;-141.02;100.00;85391.84;5133332;28;20196;-74
2021/12/03 08:14:08;;;;;;;23.60;22.33;;;;;;;-141.02;100.00;85452.13;5132970;28;20197;-75
2021/12/03 08:16:35;;;;;;;23.27;21.90;;;;;;;-141.02;100.00;85553.19;5132991;27;20221;-79
2021/12/03 08:19:03;;;;;;;23.07;21.87;;;;;;;-141.02;100.00;85477.38;5132816;27;20251;-75
2021/12/03 08:21:30;;;;;;;21.23;20.13;;;;;;;-141.02;100.00;85424.91;5133041;27;20235;-79
2021/12/03 08:24:00;;;;;;;20.20;19.10;;;;;;;-141.02;99.97;85452.13;5132970;28;20193;-73
2021/12/03 08:26:27;;;;;;;23.20;22.00;;;;;;;-141.02;100.00;85436.56;5132858;27;20197;-81
2021/12/03 08:28:54;;;;;;;22.30;21.03;;;;;;;-141.02;99.77;85422.97;5133351;27;20192;-81
2021/12/03 08:31:21;;;;;;;23.40;22.00;;;;;;;-141.02;100.00;85436.56;5133090;27;20257;-77
2021/12/03 08:33:49;;;;;;;26.77;25.27;;;;;;;-141.02;99.67;85479.34;5132777;28;20228;-79
2021/12/03 08:36:16;;;;;;;22.80;21.60;;;;;;;-141.02;98.80;85141.09;5133036;27;20241;-75
2021/12/03 08:38:43;;;;;;;22.17;21.03;;;;;;;-141.02;99.78;85456.00;5132731;27;20224;-80
2021/12/03 08:41:16;;;;;;;23.63;22.33;;;;;;;-141.02;100.00;85014.75;5132930;28;20257;-76
2021/12/03 08:43:44;;;;;;;22.90;21.70;;;;;;;-141.02;99.85;85440.44;5133057;28;20566;-77
2021/12/03 08:46:14;;;;;;;24.97;23.67;;;;;;;-141.02;100.00;85405.47;5132823;28;20253;-74
2021/12/03 08:48:45;;;;;;;23.67;22.47;;;;;;;-141.02;97.94;85463.78;5132948;28;20184;-76
2021/12/03 08:51:24;;;;;;;22.53;21.33;;;;;;;-141.02;99.17;85448.22;5132720;28;20232;-74
2021/12/03 08:56:37;;;;;;;23.23;21.93;;;;;;;-141.02;98.04;85409.34;5132695;28;20272;-77
2021/12/03 08:59:05;;;;;;;24.42;23.13;;;;;;;-141.02;96.95;85426.84;5132840;27;20280;-74
2021/12/03 09:01:32;;;;;;;24.95;23.45;;;;;;;-141.02;97.49;85440.44;5132436;28;20280;-75
2021/12/03 09:03:59;;;;;;;25.63;23.77;;;;;;;-141.02;97.40;85430.72;5132817;27;20276;-76
2021/12/03 09:06:27;;;;;;;26.90;25.40;;;;;;;-141.02;96.17;85426.84;5132545;28;20192;-80
2021/12/03 09:08:54;;;;;;;22.77;21.47;;;;;;;-141.02;96.33;85424.91;5132681;28;20196;-75
2021/12/03 09:11:23;;;;;;;21.30;20.20;;;;;;;-141.02;96.45;85403.53;5132640;27;20200;-76
2021/12/03 09:13:52;;;;;;;23.90;22.60;;;;;;;-141.02;97.30;85428.78;5132617;27;20192;-74
2021/12/03 09:16:21;;;;;;;24.00;22.70;;;;;;;-141.02;96.35;85401.56;5133159;27;20220;-76
2021/12/03 09:18:50;;;;;;;25.52;24.23;;;;;;;-141.02;96.87;85438.50;5135924;27;20602;-81
2021/12/03 09:21:20;;;;;;;24.97;23.57;;;;;;;-141.02;95.77;85428.78;5136485;27;20199;-77
2021/12/03 09:24:06;;;;;;;23.00;21.33;;;;;;;-141.02;97.97;85428.78;5136228;27;20300;-74
2021/12/03 09:26:36;;;;;;;22.80;21.60;;;;;;;-141.02;97.21;85389.91;5136174;27;20184;-74
2021/12/03 09:29:07;;;;;;;25.23;23.63;;;;;;;-141.02;96.11;85386.03;5136098;27;20201;-77
2021/12/03 09:31:36;;;;;;;25.90;24.52;;;;;;;-141.02;95.94;85483.22;5135797;27;20185;-76
2021/12/03 09:34:07;;;;;;;24.70;23.23;;;;;;;-141.02;95.55;85393.81;5136019;27;20196;-76
2021/12/03 09:36:36;;;;;;;25.15;23.33;;;;;;;-141.02;94.54;85401.56;5135712;27;20574;-74
2021/12/03 09:39:04;;;;;;;23.65;22.35;;;;;;;-141.02;92.75;85393.81;5135872;27;20311;-76
2021/12/03 09:41:32;;;;;;;24.63;23.23;;;;;;;-141.02;93.43;85430.72;5135887;27;20188;-79
2021/12/03 09:43:59;;;;;;;23.93;22.73;;;;;;;-141.02;95.05;85459.91;5135759;27;20235;-77
2021/12/03 09:46:30;;;;;;;22.90;21.50;;;;;;;-141.02;93.71;85424.91;5135796;27;20257;-77
2021/12/03 09:51:49;;;;;;;24.00;22.60;;;;;;;-141.02;92.29;85397.69;5132576;27;20204;-75
2021/12/03 09:57:08;;;;;;;24.27;22.98;;;;;;;-141.02;91.50;85401.56;5130260;27;20590;-76
2021/12/03 10:13:39;;;;;;;23.60;22.40;;;;;;;-141.02;90.73;85382.13;5135129;27;20230;-76
2021/12/03 10:16:15;;;;;;;25.45;23.90;;;;;;;-141.02;92.05;85386.03;5135163;27;20200;-76
2021/12/03 10:18:48;;;;;;;27.13;24.35;;;;;;;-141.02;90.98;85432.69;5135106;27;20212;-75
2021/12/03 10:24:41;;;;;;;25.25;23.85;;;;;;;-141.02;91.36;85424.91;5110609;27;20900;-77
2021/12/03 10:30:30;;;;;;;23.92;22.73;;;;;;;-141.02;92.51;85389.91;5109957;28;20243;-78
2021/12/03 10:38:48;;;;;;;26.10;24.70;;;;;;;-141.02;91.89;85397.69;5091790;28;20211;-76
2021/12/03 10:44:11;;;;;;;25.77;23.63;;;;;;;-141.02;89.91;85421.00;5109753;27;20252;-77
2021/12/03 10:49:39;;;;;;;25.10;23.70;;;;;;;-141.02;89.77;85384.09;5109556;28;20181;-76
2021/12/03 10:52:19;;;;;;;24.75;23.35;;;;;;;-141.02;90.41;85397.69;5109467;28;20195;-75
2021/12/03 11:00:48;;;;;;;25.77;24.38;;;;;;;-141.02;86.31;85374.38;5109749;28;20682;-76
2021/12/03 11:42:43;;;;;;;27.13;25.10;;;;;;;-141.02;84.72;85354.94;5095524;28;20230;-78
2021/12/03 14:43:10;;;;;;;22.42;21.10;;;;;;;-141.02;100.00;55844.97;5092238;28;20238;-78
2021/12/03 14:46:00;;;;;;;20.90;19.80;;;;;;;-141.02;100.00;55844.97;5091955;28;20199;-78
2021/12/03 14:48:43;;;;;;;24.07;22.67;;;;;;;-141.02;100.00;55844.97;5092270;28;20276;-78
2021/12/03 14:57:15;;;;;;;22.73;21.53;;;;;;;-141.02;100.00;55844.97;5092241;28;20243;-79
2021/12/03 14:59:55;;;;;;;20.93;19.83;;;;;;;-141.02;100.00;55844.97;5091816;28;20229;-79
2021/12/03 15:02:35;;;;;;;22.60;21.50;;;;;;;-141.02;100.00;55844.97;5091987;28;20201;-78
2021/12/03 15:08:01;;;;;;;19.03;18.13;;;;;;;;;;5131369;27;20552;-78
2021/12/03 15:10:37;;;;;;;18.80;17.90;;;;;;;;;;5130457;27;20684;-78
2021/12/03 15:18:57;;;;;;;17.40;16.57;;;;;;;;;;5131037;28;20180;-78
2021/12/03 15:24:40;;;;;;;15.77;15.07;;;;;;;;;;5087341;28;20182;-79
2021/12/03 15:32:44;;;;;;;23.47;22.37;;;;;;;;;;5108463;27;20701;-77
2021/12/03 15:35:14;;;;;;;18.87;17.90;;;;;;;;;;5130031;27;20634;-78
2021/12/03 15:57:01;;;;;;;17.33;16.63;;;;;;;;;;5129644;27;20185;-78
2021/12/03 16:05:04;;;;;;;15.43;14.63;;;;;;;;;;5129858;28;20196;-79
2021/12/03 16:10:15;;;;;;;14.70;14.10;;;;;;;;;;5129449;27;20192;-79
2021/12/03 16:12:53;;;;;;;15.43;14.83;;;;;;;;;;5129356;27;20272;-79
2021/12/03 16:15:39;;;;;;;17.60;16.80;;;;;;;;;;5129240;27;20185;-78
2021/12/03 16:18:38;;;;;;;15.73;15.13;;;;;;;;;;5122241;27;20232;-78
2021/12/03 16:21:31;;;;;;;15.07;14.47;;;;;;;;;;5115539;27;20191;-78
2021/12/03 16:46:16;;;;;;;15.80;15.20;;;;;;;;;;5115074;28;20187;-78
2021/12/03 16:51:33;;;;;;;15.57;14.97;;;;;;;;;;5115489;28;20759;-79